createdAt,value
2022-08-09T00:00:00.939Z,14.73
2022-08-09T00:02:37.000Z,14.75
2022-08-09T00:06:18.562Z,14.74
2022-08-09T00:08:00.004Z,14.70
2022-08-09T00:10:28.198Z,14.67
2022-08-09T00:12:54.738Z,14.64
2022-08-09T00:15:26.463Z,14.62
2022-08-09T00:18:07.586Z,14.54
2022-08-09T00:20:38.366Z,14.48
2022-08-09T00:23:56.506Z,14.43
2022-08-09T00:25:57.296Z,14.38
2022-08-09T00:28:26.422Z,14.37
2022-08-09T00:30:54.175Z,14.33
2022-08-09T00:33:20.713Z,14.30
2022-08-09T00:36:07.777Z,14.23
2022-08-09T00:38:36.310Z,14.18
2022-08-09T00:41:03.364Z,13.98
2022-08-09T00:44:10.259Z,14.07
2022-08-09T00:46:55.638Z,13.99
2022-08-09T00:49:07.933Z,13.92
2022-08-09T00:51:54.597Z,13.88
2022-08-09T00:54:23.328Z,13.76
2022-08-09T00:57:02.123Z,13.81
2022-08-09T00:59:41.432Z,13.77
2022-08-09T01:02:18.405Z,13.73
2022-08-09T01:04:53.880Z,13.69
2022-08-09T01:07:37.712Z,13.65
2022-08-09T01:10:25.968Z,13.63
2022-08-09T01:13:03.166Z,13.60
2022-08-09T01:15:40.878Z,13.52
2022-08-09T01:18:30.484Z,13.54
2022-08-09T01:21:15.151Z,13.49
2022-08-09T01:24:02.838Z,13.44
2022-08-09T01:26:54.661Z,13.45
2022-08-09T01:29:28.281Z,13.41
2022-08-09T01:32:31.030Z,13.36
2022-08-09T01:34:48.876Z,13.31
2022-08-09T01:37:42.877Z,13.30
2022-08-09T01:40:08.943Z,13.16
2022-08-09T01:42:38.835Z,13.26
2022-08-09T01:45:07.793Z,13.22
2022-08-09T01:47:44.543Z,13.20
2022-08-09T01:50:12.194Z,13.16
2022-08-09T01:52:41.489Z,13.14
2022-08-09T01:55:11.458Z,13.11
2022-08-09T01:57:45.852Z,13.10
2022-08-09T02:00:34.965Z,13.05
2022-08-09T02:03:02.207Z,13.00
2022-08-09T02:05:37.654Z,13.00
2022-08-09T02:08:40.658Z,12.94
2022-08-09T02:10:57.278Z,12.93
2022-08-09T02:13:37.639Z,12.90
2022-08-09T02:16:11.012Z,12.89
2022-08-09T02:18:42.729Z,12.88
2022-08-09T02:21:17.347Z,12.85
2022-08-09T02:23:52.274Z,12.81
2022-08-09T02:26:25.094Z,12.78
2022-08-09T02:28:59.930Z,12.78
2022-08-09T02:31:30.141Z,12.75
2022-08-09T02:34:13.249Z,12.60
2022-08-09T02:36:54.254Z,12.68
2022-08-09T02:39:34.134Z,12.67
2022-08-09T02:42:10.907Z,12.66
2022-08-09T02:44:42.585Z,12.49
2022-08-09T02:47:13.297Z,12.55
2022-08-09T02:49:45.840Z,12.51
2022-08-09T02:52:25.746Z,12.35
2022-08-09T02:54:58.818Z,12.36
2022-08-09T03:00:20.783Z,12.33
2022-08-09T03:02:59.996Z,12.29
2022-08-09T03:05:29.823Z,12.29
2022-08-09T03:08:03.984Z,12.30
2022-08-09T03:10:32.493Z,12.27
2022-08-09T03:13:00.147Z,12.23
2022-08-09T03:16:04.362Z,12.18
2022-08-09T03:18:19.069Z,12.20
2022-08-09T03:20:59.287Z,12.17
2022-08-09T03:23:26.114Z,12.15
2022-08-09T03:26:02.107Z,12.04
2022-08-09T03:28:32.608Z,11.92
2022-08-09T03:31:04.419Z,12.11
2022-08-09T03:33:53.359Z,12.06
2022-08-09T03:36:22.105Z,12.02
2022-08-09T03:38:55.228Z,12.00
2022-08-09T03:41:29.808Z,11.85
2022-08-09T03:44:07.824Z,11.92
2022-08-09T03:46:37.036Z,11.91
2022-08-09T03:49:08.320Z,11.94
2022-08-09T03:51:55.622Z,11.95
2022-08-09T03:54:29.251Z,11.86
2022-08-09T03:56:57.823Z,11.85
2022-08-09T03:59:43.301Z,11.79
2022-08-09T04:02:14.253Z,11.73
2022-08-09T04:04:46.196Z,11.71
2022-08-09T04:07:13.289Z,11.70
2022-08-09T04:09:48.375Z,11.38
2022-08-09T04:12:38.032Z,11.62
2022-08-09T04:15:11.666Z,11.56
2022-08-09T04:17:57.602Z,11.59
2022-08-09T04:20:24.500Z,11.64
2022-08-09T04:22:52.848Z,11.67
2022-08-09T04:25:20.913Z,11.65
2022-08-09T04:27:49.270Z,11.62
2022-08-09T04:30:17.889Z,11.63
2022-08-09T04:32:48.892Z,11.64
2022-08-09T04:35:17.072Z,11.59
2022-08-09T04:37:46.484Z,11.64
2022-08-09T04:40:19.100Z,11.63
2022-08-09T04:42:56.671Z,11.92
2022-08-09T04:45:23.846Z,12.04
2022-08-09T04:48:00.209Z,12.16
2022-08-09T04:50:33.580Z,12.55
2022-08-09T04:53:05.498Z,12.75
2022-08-09T04:55:42.160Z,12.83
2022-08-09T04:58:24.311Z,12.84
2022-08-09T05:00:52.284Z,12.88
2022-08-09T05:03:43.013Z,12.87
2022-08-09T05:06:10.539Z,12.85
2022-08-09T05:08:38.466Z,12.87
2022-08-09T05:11:06.674Z,12.79
2022-08-09T05:13:38.768Z,12.91
2022-08-09T05:16:06.856Z,12.94
2022-08-09T05:18:38.800Z,12.96
2022-08-09T05:21:24.683Z,12.99
2022-08-09T05:24:01.658Z,13.01
2022-08-09T05:26:45.275Z,13.05
2022-08-09T05:29:17.407Z,13.10
2022-08-09T05:31:49.178Z,13.17
2022-08-09T05:34:18.903Z,13.23
2022-08-09T05:36:47.706Z,13.22
2022-08-09T05:39:14.641Z,13.34
2022-08-09T05:41:55.961Z,13.36
2022-08-09T05:44:29.045Z,13.42
2022-08-09T05:46:59.716Z,13.43
2022-08-09T05:50:23.168Z,13.53
2022-08-09T05:52:14.583Z,13.65
2022-08-09T05:54:42.200Z,13.73
2022-08-09T05:57:12.862Z,13.81
2022-08-09T05:59:44.036Z,13.90
2022-08-09T06:02:11.824Z,13.83
2022-08-09T06:04:44.549Z,14.08
2022-08-09T06:07:21.998Z,14.18
2022-08-09T06:10:02.072Z,14.30
2022-08-09T06:12:29.807Z,14.38
2022-08-09T06:15:00.721Z,14.50
2022-08-09T06:17:40.260Z,14.58
2022-08-09T06:20:08.245Z,14.67
2022-08-09T06:22:36.510Z,14.75
2022-08-09T06:25:04.297Z,14.84
2022-08-09T06:27:41.385Z,15.04
2022-08-09T06:30:10.974Z,15.16
2022-08-09T06:33:00.999Z,15.23
2022-08-09T06:35:35.691Z,15.36
2022-08-09T06:38:16.490Z,15.53
2022-08-09T06:40:43.301Z,15.70
2022-08-09T06:43:10.708Z,15.82
2022-08-09T06:46:05.217Z,15.82
2022-08-09T06:48:30.721Z,16.00
2022-08-09T06:50:58.862Z,16.09
2022-08-09T06:53:27.414Z,16.13
2022-08-09T06:56:00.198Z,16.38
2022-08-09T07:00:47.193Z,16.45
2022-08-09T07:01:13.549Z,16.67
2022-08-09T07:03:52.554Z,16.83
2022-08-09T07:06:21.388Z,16.96
2022-08-09T07:08:53.570Z,17.10
2022-08-09T07:11:25.249Z,17.17
2022-08-09T07:14:04.930Z,17.35
2022-08-09T07:16:41.197Z,17.52
2022-08-09T07:19:09.808Z,17.66
2022-08-09T07:21:41.859Z,17.80
2022-08-09T07:24:32.918Z,17.88
2022-08-09T07:27:24.044Z,17.92
2022-08-09T07:29:57.219Z,18.26
2022-08-09T07:32:31.793Z,18.37
2022-08-09T07:35:02.864Z,18.52
2022-08-09T07:37:43.637Z,18.52
2022-08-09T07:40:17.564Z,18.80
2022-08-09T07:42:54.379Z,18.98
2022-08-09T07:45:23.554Z,19.06
2022-08-09T07:48:05.768Z,19.29
2022-08-09T07:50:36.723Z,19.38
2022-08-09T07:53:04.448Z,19.59
2022-08-09T07:55:41.030Z,19.71
2022-08-09T07:58:21.629Z,19.79
2022-08-09T08:00:58.682Z,20.05
2022-08-09T08:03:32.595Z,20.19
2022-08-09T08:05:59.282Z,20.34
2022-08-09T08:09:01.359Z,20.41
2022-08-09T08:12:10.306Z,20.53
2022-08-09T08:14:00.829Z,20.78
2022-08-09T08:16:29.645Z,20.89
2022-08-09T08:18:56.845Z,21.12
2022-08-09T08:21:24.300Z,21.11
2022-08-09T08:23:55.879Z,21.34
2022-08-09T08:26:26.441Z,21.52
2022-08-09T08:29:08.975Z,21.62
2022-08-09T08:31:39.416Z,21.92
2022-08-09T08:34:25.369Z,22.00
2022-08-09T08:36:52.400Z,22.18
2022-08-09T08:39:19.083Z,22.27
2022-08-09T08:41:52.352Z,22.44
2022-08-09T08:44:23.077Z,22.56
2022-08-09T08:47:02.690Z,22.72
2022-08-09T08:49:46.820Z,22.89
2022-08-09T08:52:50.307Z,23.06
2022-08-09T08:55:05.638Z,23.21
2022-08-09T08:57:34.784Z,23.25
2022-08-09T09:00:12.885Z,23.43
2022-08-09T09:02:52.761Z,23.48
2022-08-09T09:05:33.399Z,23.68
2022-08-09T09:08:30.319Z,23.77
2022-08-09T09:11:00.394Z,23.92
2022-08-09T09:13:41.571Z,23.96
2022-08-09T09:16:16.733Z,24.08
2022-08-09T09:18:48.702Z,24.10
2022-08-09T09:21:26.088Z,24.28
2022-08-09T09:23:58.322Z,24.28
2022-08-09T09:26:31.839Z,24.36
2022-08-09T09:29:10.458Z,24.38
2022-08-09T09:32:01.671Z,24.63
2022-08-09T09:34:25.268Z,24.82
2022-08-09T09:36:56.545Z,24.84
2022-08-09T09:39:25.558Z,25.07
2022-08-09T09:42:23.164Z,24.69
2022-08-09T09:44:57.916Z,25.01
2022-08-09T09:47:26.417Z,25.19
2022-08-09T09:50:14.059Z,25.21
2022-08-09T09:52:53.485Z,25.47
2022-08-09T09:55:29.179Z,25.48
2022-08-09T09:58:18.058Z,25.55
2022-08-09T10:00:55.456Z,25.66
2022-08-09T10:03:43.283Z,25.70
2022-08-09T10:06:11.679Z,25.87
2022-08-09T10:08:43.175Z,26.02
2022-08-09T10:11:59.351Z,26.10
2022-08-09T10:14:27.417Z,26.22
2022-08-09T10:17:17.662Z,26.20
2022-08-09T10:19:45.986Z,26.24
2022-08-09T10:22:12.805Z,26.36
2022-08-09T10:24:40.379Z,26.57
2022-08-09T10:27:10.236Z,26.65
2022-08-09T10:30:43.824Z,26.80
2022-08-09T10:32:42.361Z,26.91
2022-08-09T10:35:11.026Z,27.05
2022-08-09T10:37:40.371Z,27.09
2022-08-09T10:40:12.223Z,27.27
2022-08-09T10:42:58.888Z,27.45
2022-08-09T10:45:25.579Z,27.50
2022-08-09T10:48:17.275Z,27.63
2022-08-09T10:50:56.936Z,27.71
2022-08-09T10:53:54.554Z,27.73
2022-08-09T10:56:23.413Z,27.81
2022-08-09T10:58:50.963Z,27.96
2022-08-09T11:03:14.075Z,27.91
2022-08-09T11:04:30.245Z,28.13
2022-08-09T11:07:55.063Z,28.23
2022-08-09T11:10:54.775Z,28.28
2022-08-09T11:13:53.806Z,28.21
2022-08-09T11:16:37.711Z,28.55
2022-08-09T11:19:09.487Z,28.67
2022-08-09T11:22:16.739Z,28.83
2022-08-09T11:25:08.492Z,28.73
2022-08-09T11:28:03.823Z,28.94
2022-08-09T11:30:34.333Z,29.07
2022-08-09T11:33:04.944Z,29.11
2022-08-09T11:35:49.311Z,29.16
2022-08-09T11:38:21.998Z,29.22
2022-08-09T11:40:50.049Z,29.43
2022-08-09T11:43:40.007Z,29.56
2022-08-09T11:46:06.719Z,29.66
2022-08-09T11:48:45.527Z,29.70
2022-08-09T11:52:06.777Z,29.81
2022-08-09T11:54:21.370Z,29.80
2022-08-09T11:56:54.951Z,30.19
2022-08-09T11:59:30.201Z,30.37
2022-08-09T12:02:34.305Z,30.46
2022-08-09T12:04:54.546Z,30.44
2022-08-09T12:07:27.730Z,30.48
2022-08-09T12:09:59.843Z,30.80
2022-08-09T12:12:32.012Z,31.02
2022-08-09T12:15:08.379Z,31.18
2022-08-09T12:17:44.504Z,31.24
2022-08-09T12:20:21.387Z,31.31
2022-08-09T12:22:51.960Z,31.29
2022-08-09T12:25:35.992Z,31.29
2022-08-09T12:29:14.070Z,31.53
2022-08-09T12:30:56.427Z,31.38
2022-08-09T12:33:24.298Z,31.46
2022-08-09T12:36:05.757Z,31.72
2022-08-09T12:38:53.760Z,31.86
2022-08-09T12:41:26.461Z,32.06
2022-08-09T12:44:06.624Z,31.98
2022-08-09T12:46:36.075Z,32.03
2022-08-09T12:49:04.107Z,32.35
2022-08-09T12:52:00.405Z,32.58
2022-08-09T12:54:17.615Z,32.65
2022-08-09T12:56:51.409Z,32.56
2022-08-09T12:59:22.308Z,32.68
2022-08-09T13:02:03.007Z,32.72
2022-08-09T13:04:37.602Z,32.80
2022-08-09T13:07:11.463Z,32.82
2022-08-09T13:09:43.257Z,32.81
2022-08-09T13:12:11.480Z,32.62
2022-08-09T13:14:47.366Z,32.43
2022-08-09T13:17:44.013Z,32.45
2022-08-09T13:20:09.799Z,32.48
2022-08-09T13:23:02.015Z,32.62
2022-08-09T13:25:42.031Z,32.69
2022-08-09T13:28:14.228Z,32.87
2022-08-09T13:32:14.333Z,32.92
2022-08-09T13:33:53.229Z,33.13
2022-08-09T13:36:38.919Z,33.14
2022-08-09T13:41:54.455Z,33.10
2022-08-09T13:42:01.619Z,33.21
2022-08-09T13:44:31.306Z,33.29
2022-08-09T13:47:26.520Z,33.48
2022-08-09T13:49:56.543Z,33.65
2022-08-09T13:52:28.540Z,33.79
2022-08-09T13:55:00.698Z,33.74
2022-08-09T13:57:39.702Z,33.85
2022-08-09T14:00:12.769Z,33.90
2022-08-09T14:02:42.934Z,34.10
2022-08-09T14:05:58.731Z,34.28
2022-08-09T14:08:17.347Z,34.26
2022-08-09T14:10:49.489Z,34.25
2022-08-09T14:14:16.104Z,34.42
2022-08-09T14:16:11.613Z,34.36
2022-08-09T14:18:43.301Z,34.12
2022-08-09T14:21:12.652Z,34.15
2022-08-09T14:23:53.402Z,34.28
2022-08-09T14:26:22.600Z,34.44
2022-08-09T14:28:52.086Z,34.64
2022-08-09T14:31:20.101Z,34.53
2022-08-09T14:33:52.303Z,34.65
2022-08-09T14:36:21.518Z,34.77
2022-08-09T14:38:52.974Z,34.67
2022-08-09T14:41:40.333Z,34.79
2022-08-09T14:44:07.127Z,34.99
2022-08-09T14:47:03.926Z,34.99
2022-08-09T14:49:26.791Z,35.12
2022-08-09T14:51:58.443Z,35.13
2022-08-09T14:54:28.283Z,35.38
2022-08-09T14:56:57.676Z,35.28
2022-08-09T14:59:27.213Z,35.53
2022-08-09T15:01:56.705Z,35.72
2022-08-09T15:04:25.263Z,35.79
2022-08-09T15:06:52.267Z,35.92
2022-08-09T15:10:03.975Z,35.98
2022-08-09T15:12:08.224Z,35.83
2022-08-09T15:14:38.498Z,35.88
2022-08-09T15:17:07.100Z,36.18
2022-08-09T15:19:36.269Z,36.48
2022-08-09T15:22:03.263Z,36.49
2022-08-09T15:24:30.072Z,36.82
2022-08-09T15:26:57.659Z,36.90
2022-08-09T15:30:59.835Z,36.88
2022-08-09T15:32:29.801Z,36.97
2022-08-09T15:34:58.186Z,37.11
2022-08-09T15:37:36.962Z,36.90
2022-08-09T15:40:06.298Z,36.95
2022-08-09T15:42:39.810Z,36.97
2022-08-09T15:45:11.229Z,37.00
2022-08-09T15:47:52.356Z,37.24
2022-08-09T15:50:28.958Z,37.09
2022-08-09T15:53:06.954Z,37.61
2022-08-09T15:55:58.982Z,37.67
2022-08-09T15:58:29.284Z,37.81
2022-08-09T16:00:56.743Z,37.74
2022-08-09T16:03:26.745Z,37.61
2022-08-09T16:06:05.218Z,37.40
2022-08-09T16:08:31.852Z,37.40
2022-08-09T16:10:59.519Z,37.67
2022-08-09T16:14:02.902Z,37.66
2022-08-09T16:16:17.503Z,37.34
2022-08-09T16:18:47.169Z,37.23
2022-08-09T16:21:17.477Z,37.30
2022-08-09T16:23:55.741Z,37.08
2022-08-09T16:26:34.555Z,37.21
2022-08-09T16:29:10.532Z,37.37
2022-08-09T16:32:19.375Z,37.18
2022-08-09T16:34:28.846Z,37.05
2022-08-09T16:36:55.877Z,37.14
2022-08-09T16:39:25.902Z,37.25
2022-08-09T16:42:02.900Z,37.49
2022-08-09T16:44:32.110Z,37.42
2022-08-09T16:47:03.983Z,37.52
2022-08-09T16:50:32.170Z,37.77
2022-08-09T16:52:33.906Z,37.90
2022-08-09T16:55:00.717Z,37.99
2022-08-09T16:57:27.854Z,37.99
2022-08-09T17:00:15.428Z,37.84
2022-08-09T17:02:42.010Z,37.58
2022-08-09T17:05:12.400Z,37.40
2022-08-09T17:08:44.992Z,37.18
2022-08-09T17:10:27.404Z,36.95
2022-08-09T17:12:54.246Z,36.83
2022-08-09T17:15:31.120Z,36.68
2022-08-09T17:18:08.253Z,36.58
2022-08-09T17:20:46.543Z,36.54
2022-08-09T17:23:19.242Z,36.39
2022-08-09T17:25:46.158Z,36.20
2022-08-09T17:28:20.108Z,35.99
2022-08-09T17:30:47.814Z,36.02
2022-08-09T17:33:22.261Z,36.00
2022-08-09T17:35:51.157Z,35.98
2022-08-09T17:38:34.038Z,35.99
2022-08-09T17:41:04.897Z,35.93
2022-08-09T17:43:34.180Z,35.89
2022-08-09T17:46:07.070Z,35.67
2022-08-09T17:48:38.294Z,35.34
2022-08-09T17:51:18.582Z,35.17
2022-08-09T17:53:51.829Z,34.85
2022-08-09T17:56:21.269Z,34.33
2022-08-09T17:58:47.859Z,33.80
2022-08-09T18:01:22.220Z,33.20
2022-08-09T18:03:49.725Z,32.81
2022-08-09T18:06:31.173Z,32.36
2022-08-09T18:09:01.112Z,31.89
2022-08-09T18:11:27.685Z,31.50
2022-08-09T18:14:03.520Z,31.18
2022-08-09T18:16:39.375Z,30.75
2022-08-09T18:20:55.493Z,30.54
2022-08-09T18:22:04.007Z,30.29
2022-08-09T18:24:31.131Z,30.01
2022-08-09T18:26:58.233Z,29.77
2022-08-09T18:30:35.443Z,29.61
2022-08-09T18:32:14.809Z,29.39
2022-08-09T18:34:45.874Z,29.23
2022-08-09T18:37:47.798Z,29.01
2022-08-09T18:40:03.803Z,28.90
2022-08-09T18:42:30.423Z,28.76
2022-08-09T18:44:57.261Z,28.61
2022-08-09T18:47:37.149Z,28.31
2022-08-09T18:50:06.101Z,28.32
2022-08-09T18:52:37.421Z,28.18
2022-08-09T18:55:06.404Z,28.02
2022-08-09T18:57:44.607Z,27.89
2022-08-09T19:00:19.093Z,27.60
2022-08-09T19:02:47.566Z,27.44
2022-08-09T19:05:28.799Z,27.36
2022-08-09T19:08:09.895Z,27.17
2022-08-09T19:10:39.079Z,27.10
2022-08-09T19:13:19.841Z,26.76
2022-08-09T19:15:55.845Z,26.83
2022-08-09T19:18:33.429Z,26.65
2022-08-09T19:21:09.543Z,26.54
2022-08-09T19:24:32.568Z,26.29
2022-08-09T19:26:31.177Z,26.27
2022-08-09T19:29:01.801Z,26.09
2022-08-09T19:31:28.947Z,26.04
2022-08-09T19:33:57.934Z,25.95
2022-08-09T19:36:31.009Z,25.86
2022-08-09T19:39:03.536Z,25.75
2022-08-09T19:41:32.975Z,25.65
2022-08-09T19:44:03.174Z,25.56
2022-08-09T19:46:35.290Z,25.45
2022-08-09T19:50:05.226Z,25.31
2022-08-09T19:51:55.502Z,25.19
2022-08-09T19:54:25.083Z,24.96
2022-08-09T19:56:51.927Z,24.93
2022-08-09T19:59:39.908Z,24.67
2022-08-09T20:02:17.376Z,24.67
2022-08-09T20:04:54.864Z,24.49
2022-08-09T20:07:22.622Z,24.36
2022-08-09T20:09:50.679Z,24.23
2022-08-09T20:12:31.662Z,24.09
2022-08-09T20:16:31.451Z,23.97
2022-08-09T20:17:54.772Z,23.82
2022-08-09T20:20:24.787Z,23.70
2022-08-09T20:22:56.071Z,23.58
2022-08-09T20:25:25.322Z,23.50
2022-08-09T20:27:52.136Z,23.37
2022-08-09T20:30:21.817Z,23.27
2022-08-09T20:32:50.860Z,23.11
2022-08-09T20:35:19.245Z,23.01
2022-08-09T20:38:23.490Z,22.90
2022-08-09T20:40:33.918Z,22.74
2022-08-09T20:43:19.098Z,22.62
2022-08-09T20:46:01.659Z,22.46
2022-08-09T20:48:36.349Z,22.31
2022-08-09T20:51:03.797Z,22.22
2022-08-09T20:53:37.095Z,22.00
2022-08-09T20:56:08.649Z,21.95
2022-08-09T20:58:36.005Z,21.79
2022-08-09T21:01:33.507Z,21.67
2022-08-09T21:04:07.979Z,21.53
2022-08-09T21:06:42.758Z,21.35
2022-08-09T21:09:13.525Z,21.26
2022-08-09T21:14:31.258Z,20.99
2022-08-09T21:16:59.355Z,20.86
2022-08-09T21:46:37.355Z,19.71
2022-08-09T21:49:03.894Z,19.69
2022-08-09T21:51:36.222Z,19.67
2022-08-09T21:54:10.367Z,19.63
2022-08-09T21:56:44.524Z,19.58
2022-08-09T21:59:23.420Z,19.54
2022-08-09T22:02:00.632Z,19.51
2022-08-09T22:04:37.526Z,19.39
2022-08-09T22:07:35.522Z,19.48
2022-08-09T22:10:02.049Z,19.32
2022-08-09T22:12:31.263Z,19.33
2022-08-09T22:14:58.681Z,19.38
2022-08-09T22:17:26.639Z,19.31
2022-08-09T22:19:59.027Z,19.30
2022-08-09T22:22:27.017Z,19.27
2022-08-09T22:26:03.961Z,19.22
2022-08-09T22:27:40.518Z,19.17
2022-08-09T22:30:10.194Z,19.12
2022-08-09T22:32:38.631Z,19.09
2022-08-09T22:36:01.460Z,18.99
2022-08-09T22:38:06.587Z,18.96
2022-08-09T22:40:34.852Z,18.92
2022-08-09T22:43:01.612Z,18.88
2022-08-09T22:48:18.481Z,18.83
2022-08-09T22:48:35.497Z,18.77
2022-08-09T22:51:10.607Z,18.65
2022-08-09T22:54:02.026Z,18.70
2022-08-09T22:56:33.907Z,18.69
2022-08-09T22:59:01.568Z,18.65
2022-08-09T23:01:33.333Z,18.50
2022-08-09T23:04:03.514Z,18.51
2022-08-09T23:06:36.164Z,18.51
2022-08-09T23:09:05.287Z,18.43
2022-08-09T23:11:31.938Z,18.42
2022-08-09T23:13:58.476Z,18.39
2022-08-09T23:16:25.312Z,18.36
2022-08-09T23:18:51.875Z,18.25
2022-08-09T23:21:24.595Z,18.21
2022-08-09T23:24:05.225Z,18.22
2022-08-09T23:26:33.366Z,18.18
2022-08-09T23:28:59.967Z,18.14
2022-08-09T23:31:26.635Z,18.07
2022-08-09T23:33:53.114Z,17.98
2022-08-09T23:36:21.246Z,17.93
2022-08-09T23:38:48.372Z,17.84
2022-08-09T23:41:27.506Z,17.67
2022-08-09T23:43:56.088Z,17.70
2022-08-09T23:46:22.571Z,17.64
2022-08-09T23:48:49.435Z,17.56
2022-08-09T23:51:15.938Z,17.55
2022-08-09T23:53:43.885Z,17.53
2022-08-09T23:56:10.607Z,17.46
2022-08-09T23:58:37.339Z,17.27
